sensor_id;sensor_type;location;lat;lon;timestamp;pressure;altitude;pressure_sealevel;temperature;humidity
5298;BME280;14738;42.668;23.250;2024-01-06T00:02:07;48541.19;;;-141.90;68.89
5298;BME280;14738;42.668;23.250;2024-01-06T00:04:32;48574.94;;;-141.90;69.02
5298;BME280;14738;42.668;23.250;2024-01-06T00:06:58;48541.19;;;-141.90;69.53
5298;BME280;14738;42.668;23.250;2024-01-06T00:09:23;48561.03;;;-141.90;70.74
5298;BME280;14738;42.668;23.250;2024-01-06T00:11:48;48553.09;;;-141.90;74.43
5298;BME280;14738;42.668;23.250;2024-01-06T00:14:14;48539.19;;;-141.90;75.54
5298;BME280;14738;42.668;23.250;2024-01-06T00:16:39;48537.22;;;-141.90;75.80
5298;BME280;14738;42.668;23.250;2024-01-06T00:19:05;48553.09;;;-141.90;76.05
5298;BME280;14738;42.668;23.250;2024-01-06T00:21:30;48559.06;;;-141.90;76.01
5298;BME280;14738;42.668;23.250;2024-01-06T00:23:55;48557.06;;;-141.90;77.29
5298;BME280;14738;42.668;23.250;2024-01-06T00:26:21;48576.91;;;-141.90;77.62
5298;BME280;14738;42.668;23.250;2024-01-06T00:28:46;48561.03;;;-141.90;77.39
5298;BME280;14738;42.668;23.250;2024-01-06T00:31:14;48576.91;;;-141.90;77.08
5298;BME280;14738;42.668;23.250;2024-01-06T00:33:41;48517.34;;;-141.90;75.69
5298;BME280;14738;42.668;23.250;2024-01-06T00:36:07;48545.16;;;-141.90;74.72
5298;BME280;14738;42.668;23.250;2024-01-06T00:38:33;48553.09;;;-141.90;74.95
5298;BME280;14738;42.668;23.250;2024-01-06T00:40:58;48570.97;;;-141.90;75.49
5298;BME280;14738;42.668;23.250;2024-01-06T00:43:23;48565.00;;;-141.90;76.61
5298;BME280;14738;42.668;23.250;2024-01-06T00:45:49;48553.09;;;-141.90;77.68
5298;BME280;14738;42.668;23.250;2024-01-06T00:48:14;48572.94;;;-141.90;78.30
5298;BME280;14738;42.668;23.250;2024-01-06T00:50:40;48568.97;;;-141.90;79.51
5298;BME280;14738;42.668;23.250;2024-01-06T00:53:05;48561.03;;;-141.90;79.20
5298;BME280;14738;42.668;23.250;2024-01-06T00:55:31;48541.19;;;-141.90;80.03
5298;BME280;14738;42.668;23.250;2024-01-06T00:57:56;48555.09;;;-141.90;80.36
5298;BME280;14738;42.668;23.250;2024-01-06T01:00:21;48549.13;;;-141.90;80.61
5298;BME280;14738;42.668;23.250;2024-01-06T01:02:48;48584.84;;;-141.90;81.11
5298;BME280;14738;42.668;23.250;2024-01-06T01:05:13;48576.91;;;-141.90;80.04
5298;BME280;14738;42.668;23.250;2024-01-06T01:07:38;48574.94;;;-141.90;79.58
5298;BME280;14738;42.668;23.250;2024-01-06T01:10:04;48557.06;;;-141.90;80.26
5298;BME280;14738;42.668;23.250;2024-01-06T01:12:31;48535.22;;;-141.90;82.12
5298;BME280;14738;42.668;23.250;2024-01-06T01:14:56;48563.03;;;-141.90;84.57
5298;BME280;14738;42.668;23.250;2024-01-06T01:17:21;48551.09;;;-141.90;86.51
5298;BME280;14738;42.668;23.250;2024-01-06T01:19:47;48565.00;;;-141.90;86.21
5298;BME280;14738;42.668;23.250;2024-01-06T01:22:14;48578.91;;;-141.90;86.51
5298;BME280;14738;42.668;23.250;2024-01-06T01:24:39;48557.06;;;-141.90;87.06
5298;BME280;14738;42.668;23.250;2024-01-06T01:27:05;48568.97;;;-141.90;87.42
5298;BME280;14738;42.668;23.250;2024-01-06T01:29:30;48537.22;;;-141.90;87.23
5298;BME280;14738;42.668;23.250;2024-01-06T01:31:56;48584.84;;;-141.90;87.04
5298;BME280;14738;42.668;23.250;2024-01-06T01:34:21;48565.00;;;-141.90;86.84
5298;BME280;14738;42.668;23.250;2024-01-06T01:36:47;48568.97;;;-141.90;86.66
5298;BME280;14738;42.668;23.250;2024-01-06T01:39:12;48576.91;;;-141.90;86.71
5298;BME280;14738;42.668;23.250;2024-01-06T01:41:39;48561.03;;;-141.90;86.82
5298;BME280;14738;42.668;23.250;2024-01-06T01:44:05;48559.06;;;-141.90;86.90
5298;BME280;14738;42.668;23.250;2024-01-06T01:46:30;48578.91;;;-141.90;86.01
5298;BME280;14738;42.668;23.250;2024-01-06T01:48:57;48574.94;;;-141.90;86.67
5298;BME280;14738;42.668;23.250;2024-01-06T01:51:29;48555.09;;;-141.90;85.48
5298;BME280;14738;42.668;23.250;2024-01-06T01:53:56;48594.78;;;-141.90;85.99
5298;BME280;14738;42.668;23.250;2024-01-06T01:56:23;48572.94;;;-141.90;85.88
5298;BME280;14738;42.668;23.250;2024-01-06T01:58:49;48561.03;;;-141.90;86.37
5298;BME280;14738;42.668;23.250;2024-01-06T02:01:17;48565.00;;;-141.90;85.54
5298;BME280;14738;42.668;23.250;2024-01-06T02:03:42;48559.06;;;-141.90;83.88
5298;BME280;14738;42.668;23.250;2024-01-06T02:06:11;48567.00;;;-141.90;84.91
5298;BME280;14738;42.668;23.250;2024-01-06T02:08:40;48568.97;;;-141.90;85.52
5298;BME280;14738;42.668;23.250;2024-01-06T02:11:05;48559.06;;;-141.90;85.95
5298;BME280;14738;42.668;23.250;2024-01-06T02:13:37;48567.00;;;-141.90;85.68
5298;BME280;14738;42.668;23.250;2024-01-06T02:16:03;48572.94;;;-141.90;86.05
5298;BME280;14738;42.668;23.250;2024-01-06T02:18:30;48541.19;;;-141.90;85.63
5298;BME280;14738;42.668;23.250;2024-01-06T02:20:58;48537.22;;;-141.90;85.90
5298;BME280;14738;42.668;23.250;2024-01-06T02:23:24;48545.16;;;-141.90;86.37
5298;BME280;14738;42.668;23.250;2024-01-06T02:25:50;48557.06;;;-141.90;84.22
5298;BME280;14738;42.668;23.250;2024-01-06T02:28:16;48551.09;;;-141.90;84.09
5298;BME280;14738;42.668;23.250;2024-01-06T02:30:41;48565.00;;;-141.90;84.98
5298;BME280;14738;42.668;23.250;2024-01-06T02:33:06;48541.19;;;-141.90;84.41
5298;BME280;14738;42.668;23.250;2024-01-06T02:35:32;48592.81;;;-141.90;84.05
5298;BME280;14738;42.668;23.250;2024-01-06T02:37:57;48570.97;;;-141.90;84.41
5298;BME280;14738;42.668;23.250;2024-01-06T02:40:22;48557.06;;;-141.90;85.16
5298;BME280;14738;42.668;23.250;2024-01-06T02:42:48;48555.09;;;-141.90;85.43
5298;BME280;14738;42.668;23.250;2024-01-06T02:45:13;48561.03;;;-141.90;85.05
5298;BME280;14738;42.668;23.250;2024-01-06T02:47:39;48568.97;;;-141.90;84.90
5298;BME280;14738;42.668;23.250;2024-01-06T02:50:05;48553.09;;;-141.90;84.68
5298;BME280;14738;42.668;23.250;2024-01-06T02:52:30;48588.84;;;-141.90;84.03
5298;BME280;14738;42.668;23.250;2024-01-06T02:54:56;48541.19;;;-141.90;83.02
5298;BME280;14738;42.668;23.250;2024-01-06T02:57:21;48563.03;;;-141.90;83.45
5298;BME280;14738;42.668;23.250;2024-01-06T02:59:46;48576.91;;;-141.90;83.85
5298;BME280;14738;42.668;23.250;2024-01-06T03:02:12;48557.06;;;-141.90;83.40
5298;BME280;14738;42.668;23.250;2024-01-06T03:04:37;48567.00;;;-141.90;83.16
5298;BME280;14738;42.668;23.250;2024-01-06T03:07:03;48572.94;;;-141.90;83.48
5298;BME280;14738;42.668;23.250;2024-01-06T03:09:28;48578.91;;;-141.90;83.59
5298;BME280;14738;42.668;23.250;2024-01-06T03:11:53;48549.13;;;-141.90;83.45
5298;BME280;14738;42.668;23.250;2024-01-06T03:14:19;48541.19;;;-141.90;83.16
5298;BME280;14738;42.668;23.250;2024-01-06T03:16:45;48563.03;;;-141.90;82.85
5298;BME280;14738;42.668;23.250;2024-01-06T03:19:11;48578.91;;;-141.90;82.40
5298;BME280;14738;42.668;23.250;2024-01-06T03:21:37;48517.34;;;-141.90;81.97
5298;BME280;14738;42.668;23.250;2024-01-06T03:24:03;48572.94;;;-141.90;82.35
5298;BME280;14738;42.668;23.250;2024-01-06T03:26:29;48557.06;;;-141.90;82.76
5298;BME280;14738;42.668;23.250;2024-01-06T03:28:54;48572.94;;;-141.90;81.29
5298;BME280;14738;42.668;23.250;2024-01-06T03:31:20;48563.03;;;-141.90;81.04
5298;BME280;14738;42.668;23.250;2024-01-06T03:33:47;48545.16;;;-141.90;82.50
5298;BME280;14738;42.668;23.250;2024-01-06T03:36:13;48568.97;;;-141.90;82.78
5298;BME280;14738;42.668;23.250;2024-01-06T03:38:41;48555.09;;;-141.90;81.92
5298;BME280;14738;42.668;23.250;2024-01-06T03:41:06;48580.88;;;-141.90;81.40
5298;BME280;14738;42.668;23.250;2024-01-06T03:43:31;48572.94;;;-141.90;82.26
5298;BME280;14738;42.668;23.250;2024-01-06T03:45:57;48570.97;;;-141.90;80.69
5298;BME280;14738;42.668;23.250;2024-01-06T03:48:23;48572.94;;;-141.90;79.75
5298;BME280;14738;42.668;23.250;2024-01-06T03:50:49;48561.03;;;-141.90;80.08
5298;BME280;14738;42.668;23.250;2024-01-06T03:53:14;48572.94;;;-141.90;81.25
5298;BME280;14738;42.668;23.250;2024-01-06T03:55:40;48557.06;;;-141.90;80.68
5298;BME280;14738;42.668;23.250;2024-01-06T03:58:05;48561.03;;;-141.90;80.53
5298;BME280;14738;42.668;23.250;2024-01-06T04:00:31;48553.09;;;-141.90;80.50
5298;BME280;14738;42.668;23.250;2024-01-06T04:02:56;48547.13;;;-141.90;80.97
5298;BME280;14738;42.668;23.250;2024-01-06T04:05:21;48539.19;;;-141.90;80.97
5298;BME280;14738;42.668;23.250;2024-01-06T04:07:47;48578.91;;;-141.90;81.05
5298;BME280;14738;42.668;23.250;2024-01-06T04:10:12;48547.13;;;-141.90;81.47
5298;BME280;14738;42.668;23.250;2024-01-06T04:12:37;48576.91;;;-141.90;81.54
5298;BME280;14738;42.668;23.250;2024-01-06T04:15:03;48553.09;;;-141.90;81.75
5298;BME280;14738;42.668;23.250;2024-01-06T04:17:28;48580.88;;;-141.90;81.90
5298;BME280;14738;42.668;23.250;2024-01-06T04:19:54;48572.94;;;-141.90;82.18
5298;BME280;14738;42.668;23.250;2024-01-06T04:22:19;48561.03;;;-141.90;81.81
5298;BME280;14738;42.668;23.250;2024-01-06T04:24:45;48576.91;;;-141.90;81.57
5298;BME280;14738;42.668;23.250;2024-01-06T04:27:10;48561.03;;;-141.90;82.42
5298;BME280;14738;42.668;23.250;2024-01-06T04:29:35;48565.00;;;-141.90;82.35
5298;BME280;14738;42.668;23.250;2024-01-06T04:32:01;48565.00;;;-141.90;82.63
5298;BME280;14738;42.668;23.250;2024-01-06T04:34:26;48553.09;;;-141.90;82.60
5298;BME280;14738;42.668;23.250;2024-01-06T04:36:52;48568.97;;;-141.90;82.11
5298;BME280;14738;42.668;23.250;2024-01-06T04:39:17;48563.03;;;-141.90;82.24
5298;BME280;14738;42.668;23.250;2024-01-06T04:41:43;48561.03;;;-141.90;82.51
5298;BME280;14738;42.668;23.250;2024-01-06T04:44:08;48557.06;;;-141.90;81.58
5298;BME280;14738;42.668;23.250;2024-01-06T04:46:34;48553.09;;;-141.90;81.05
5298;BME280;14738;42.668;23.250;2024-01-06T04:48:59;48584.84;;;-141.90;81.02
5298;BME280;14738;42.668;23.250;2024-01-06T04:51:24;48576.91;;;-141.90;81.78
5298;BME280;14738;42.668;23.250;2024-01-06T04:53:50;48557.06;;;-141.90;82.11
5298;BME280;14738;42.668;23.250;2024-01-06T04:56:15;48567.00;;;-141.90;81.99
5298;BME280;14738;42.668;23.250;2024-01-06T04:58:40;48545.16;;;-141.90;80.92
5298;BME280;14738;42.668;23.250;2024-01-06T05:01:06;48559.06;;;-141.90;80.20
5298;BME280;14738;42.668;23.250;2024-01-06T05:03:32;48572.94;;;-141.90;80.34
5298;BME280;14738;42.668;23.250;2024-01-06T05:05:57;48553.09;;;-141.90;82.43
5298;BME280;14738;42.668;23.250;2024-01-06T05:08:22;48570.97;;;-141.90;83.12
5298;BME280;14738;42.668;23.250;2024-01-06T05:10:48;48584.84;;;-141.90;83.71
5298;BME280;14738;42.668;23.250;2024-01-06T05:13:14;48572.94;;;-141.90;84.26
5298;BME280;14738;42.668;23.250;2024-01-06T05:15:39;48553.09;;;-141.90;84.35
5298;BME280;14738;42.668;23.250;2024-01-06T05:18:05;48565.00;;;-141.90;84.61
5298;BME280;14738;42.668;23.250;2024-01-06T05:20:30;48557.06;;;-141.90;84.80
5298;BME280;14738;42.668;23.250;2024-01-06T05:22:56;48557.06;;;-141.90;84.36
5298;BME280;14738;42.668;23.250;2024-01-06T05:25:21;48574.94;;;-141.90;84.16
5298;BME280;14738;42.668;23.250;2024-01-06T05:27:46;48567.00;;;-141.90;83.78
5298;BME280;14738;42.668;23.250;2024-01-06T05:30:12;48561.03;;;-141.90;83.55
5298;BME280;14738;42.668;23.250;2024-01-06T05:32:38;48557.06;;;-141.90;82.75
5298;BME280;14738;42.668;23.250;2024-01-06T05:35:04;48576.91;;;-141.90;83.67
5298;BME280;14738;42.668;23.250;2024-01-06T05:37:29;48590.81;;;-141.90;84.85
5298;BME280;14738;42.668;23.250;2024-01-06T05:39:55;48553.09;;;-141.90;85.33
5298;BME280;14738;42.668;23.250;2024-01-06T05:42:20;48570.97;;;-141.90;85.38
5298;BME280;14738;42.668;23.250;2024-01-06T05:44:46;48567.00;;;-141.90;85.66
5298;BME280;14738;42.668;23.250;2024-01-06T05:47:11;48570.97;;;-141.90;85.91
5298;BME280;14738;42.668;23.250;2024-01-06T05:49:41;48553.09;;;-141.90;85.92
5298;BME280;14738;42.668;23.250;2024-01-06T05:52:07;48553.09;;;-141.90;86.71
5298;BME280;14738;42.668;23.250;2024-01-06T05:54:32;48553.09;;;-141.90;86.76
5298;BME280;14738;42.668;23.250;2024-01-06T05:56:58;48563.03;;;-141.90;87.20
5298;BME280;14738;42.668;23.250;2024-01-06T05:59:23;48592.81;;;-141.90;86.71
5298;BME280;14738;42.668;23.250;2024-01-06T06:01:49;48557.06;;;-141.90;86.63
5298;BME280;14738;42.668;23.250;2024-01-06T06:04:14;48565.00;;;-141.90;87.20
5298;BME280;14738;42.668;23.250;2024-01-06T06:06:40;48570.97;;;-141.90;87.39
5298;BME280;14738;42.668;23.250;2024-01-06T06:09:05;48565.00;;;-141.90;86.65
5298;BME280;14738;42.668;23.250;2024-01-06T06:11:33;48584.84;;;-141.90;86.94
5298;BME280;14738;42.668;23.250;2024-01-06T06:13:58;48584.84;;;-141.90;87.04
5298;BME280;14738;42.668;23.250;2024-01-06T06:16:24;48604.72;;;-141.90;87.53
5298;BME280;14738;42.668;23.250;2024-01-06T06:18:49;48584.84;;;-141.90;88.17
5298;BME280;14738;42.668;23.250;2024-01-06T06:21:15;48594.78;;;-141.90;88.66
5298;BME280;14738;42.668;23.250;2024-01-06T06:23:41;48604.72;;;-141.90;88.58
5298;BME280;14738;42.668;23.250;2024-01-06T06:26:06;48574.94;;;-141.90;87.30
5298;BME280;14738;42.668;23.250;2024-01-06T06:28:33;48576.91;;;-141.90;85.95
5298;BME280;14738;42.668;23.250;2024-01-06T06:30:59;48592.81;;;-141.90;86.73
5298;BME280;14738;42.668;23.250;2024-01-06T06:33:25;48580.88;;;-141.90;86.90
5298;BME280;14738;42.668;23.250;2024-01-06T06:35:50;48592.81;;;-141.90;86.95
5298;BME280;14738;42.668;23.250;2024-01-06T06:38:16;48567.00;;;-141.90;87.59
5298;BME280;14738;42.668;23.250;2024-01-06T06:40:42;48533.25;;;-141.90;87.56
5298;BME280;14738;42.668;23.250;2024-01-06T06:43:07;48580.88;;;-141.90;87.88
5298;BME280;14738;42.668;23.250;2024-01-06T06:45:33;48570.97;;;-141.90;87.95
5298;BME280;14738;42.668;23.250;2024-01-06T06:47:58;48580.88;;;-141.90;87.54
5298;BME280;14738;42.668;23.250;2024-01-06T06:50:28;48559.06;;;-141.90;87.56
5298;BME280;14738;42.668;23.250;2024-01-06T06:52:53;48574.94;;;-141.90;87.00
5298;BME280;14738;42.668;23.250;2024-01-06T06:55:19;48576.91;;;-141.90;86.13
5298;BME280;14738;42.668;23.250;2024-01-06T06:57:45;48565.00;;;-141.90;85.63
5298;BME280;14738;42.668;23.250;2024-01-06T07:00:11;48557.06;;;-141.90;85.42
5298;BME280;14738;42.668;23.250;2024-01-06T07:02:36;48586.84;;;-141.90;84.96
5298;BME280;14738;42.668;23.250;2024-01-06T07:05:02;48582.88;;;-141.90;84.26
5298;BME280;14738;42.668;23.250;2024-01-06T07:07:27;48555.09;;;-141.90;84.64
5298;BME280;14738;42.668;23.250;2024-01-06T07:09:53;48572.94;;;-141.90;82.87
5298;BME280;14738;42.668;23.250;2024-01-06T07:12:18;48545.16;;;-141.90;81.89
5298;BME280;14738;42.668;23.250;2024-01-06T07:14:44;48572.94;;;-141.90;82.14
5298;BME280;14738;42.668;23.250;2024-01-06T07:17:09;48543.16;;;-141.90;83.30
5298;BME280;14738;42.668;23.250;2024-01-06T07:19:35;48576.91;;;-141.90;82.98
5298;BME280;14738;42.668;23.250;2024-01-06T07:22:01;48535.22;;;-141.90;82.24
5298;BME280;14738;42.668;23.250;2024-01-06T07:24:26;48568.97;;;-141.90;81.70
5298;BME280;14738;42.668;23.250;2024-01-06T07:26:52;48541.19;;;-141.90;81.90
5298;BME280;14738;42.668;23.250;2024-01-06T07:35:09;48596.78;;;-141.90;79.99
5298;BME280;14738;42.668;23.250;2024-01-06T07:37:34;48529.28;;;-141.90;78.53
5298;BME280;14738;42.668;23.250;2024-01-06T07:40:00;48578.91;;;-141.90;77.41
5298;BME280;14738;42.668;23.250;2024-01-06T07:42:25;48551.09;;;-141.90;77.23
5298;BME280;14738;42.668;23.250;2024-01-06T07:44:50;48537.22;;;-141.90;77.41
5298;BME280;14738;42.668;23.250;2024-01-06T07:47:16;48533.25;;;-141.90;76.84
5298;BME280;14738;42.668;23.250;2024-01-06T07:49:41;48521.34;;;-141.90;75.42
5298;BME280;14738;42.668;23.250;2024-01-06T07:52:07;48541.19;;;-141.90;75.73
5298;BME280;14738;42.668;23.250;2024-01-06T07:54:32;48525.31;;;-141.90;74.86
5298;BME280;14738;42.668;23.250;2024-01-06T07:56:57;48489.56;;;-141.90;75.08
5298;BME280;14738;42.668;23.250;2024-01-06T07:59:23;48561.03;;;-141.90;74.60
5298;BME280;14738;42.668;23.250;2024-01-06T08:01:49;48531.25;;;-141.90;73.26
5298;BME280;14738;42.668;23.250;2024-01-06T08:04:14;48553.09;;;-141.90;72.67
5298;BME280;14738;42.668;23.250;2024-01-06T08:06:39;48513.38;;;-141.90;71.54
5298;BME280;14738;42.668;23.250;2024-01-06T08:09:05;48529.28;;;-141.90;70.99
5298;BME280;14738;42.668;23.250;2024-01-06T08:11:31;48517.34;;;-141.90;69.54
5298;BME280;14738;42.668;23.250;2024-01-06T08:13:56;48521.34;;;-141.90;68.84
5298;BME280;14738;42.668;23.250;2024-01-06T08:16:21;48509.41;;;-141.90;69.13
5298;BME280;14738;42.668;23.250;2024-01-06T08:18:47;48553.09;;;-141.90;69.20
5298;BME280;14738;42.668;23.250;2024-01-06T08:24:30;48491.56;;;-141.90;66.35
5298;BME280;14738;42.668;23.250;2024-01-06T08:26:56;48521.34;;;-141.90;66.44
5298;BME280;14738;42.668;23.250;2024-01-06T08:29:21;48515.38;;;-141.90;67.46
5298;BME280;14738;42.668;23.250;2024-01-06T08:31:46;48527.28;;;-141.90;66.98
5298;BME280;14738;42.668;23.250;2024-01-06T08:34:12;48525.31;;;-141.90;67.33
5298;BME280;14738;42.668;23.250;2024-01-06T08:36:38;48509.41;;;-141.90;68.02
5298;BME280;14738;42.668;23.250;2024-01-06T08:39:03;48521.34;;;-141.90;68.14
5298;BME280;14738;42.668;23.250;2024-01-06T08:47:16;48529.28;;;-141.90;65.52
5298;BME280;14738;42.668;23.250;2024-01-06T08:49:41;48525.31;;;-141.90;64.26
5298;BME280;14738;42.668;23.250;2024-01-06T08:52:06;48513.38;;;-141.90;62.31
5298;BME280;14738;42.668;23.250;2024-01-06T08:54:32;48521.34;;;-141.90;62.46
5298;BME280;14738;42.668;23.250;2024-01-06T08:56:58;48513.38;;;-141.90;62.12
5298;BME280;14738;42.668;23.250;2024-01-06T08:59:23;48499.50;;;-141.90;63.07
5298;BME280;14738;42.668;23.250;2024-01-06T09:01:48;48501.47;;;-141.90;61.36
5298;BME280;14738;42.668;23.250;2024-01-06T09:04:14;48481.63;;;-141.90;61.22
5298;BME280;14738;42.668;23.250;2024-01-06T09:06:40;48521.34;;;-141.90;61.72
5298;BME280;14738;42.668;23.250;2024-01-06T09:09:07;48537.22;;;-141.90;61.81
5298;BME280;14738;42.668;23.250;2024-01-06T09:29:48;48509.41;;;-141.90;65.70
5298;BME280;14738;42.668;23.250;2024-01-06T09:32:13;48517.34;;;-141.90;66.82
5298;BME280;14738;42.668;23.250;2024-01-06T09:34:39;48503.47;;;-141.90;66.99
5298;BME280;14738;42.668;23.250;2024-01-06T09:37:04;48513.38;;;-141.90;65.65
5298;BME280;14738;42.668;23.250;2024-01-06T09:39:29;48489.56;;;-141.90;63.98
5298;BME280;14738;42.668;23.250;2024-01-06T09:41:57;48501.47;;;-141.90;63.49
5298;BME280;14738;42.668;23.250;2024-01-06T09:44:22;48501.47;;;-141.90;64.05
5298;BME280;14738;42.668;23.250;2024-01-06T09:46:49;48481.63;;;-141.90;63.04
5298;BME280;14738;42.668;23.250;2024-01-06T09:49:17;48509.41;;;-141.90;63.18
5298;BME280;14738;42.668;23.250;2024-01-06T09:51:48;48497.50;;;-141.90;61.95
5298;BME280;14738;42.668;23.250;2024-01-06T09:54:19;48489.56;;;-141.90;62.02
5298;BME280;14738;42.668;23.250;2024-01-06T09:56:48;48529.28;;;-141.90;63.65
5298;BME280;14738;42.668;23.250;2024-01-06T09:59:15;48475.66;;;-141.90;61.34
5298;BME280;14738;42.668;23.250;2024-01-06T10:01:41;48501.47;;;-141.90;62.17
5298;BME280;14738;42.668;23.250;2024-01-06T10:04:06;48507.44;;;-141.90;63.37
5298;BME280;14738;42.668;23.250;2024-01-06T10:06:32;48495.53;;;-141.90;63.92
5298;BME280;14738;42.668;23.250;2024-01-06T10:08:58;48511.41;;;-141.90;62.71
5298;BME280;14738;42.668;23.250;2024-01-06T10:11:24;48495.53;;;-141.90;61.73
5298;BME280;14738;42.668;23.250;2024-01-06T10:13:50;48491.56;;;-141.90;61.29
5298;BME280;14738;42.668;23.250;2024-01-06T10:16:16;48491.56;;;-141.90;61.05
5298;BME280;14738;42.668;23.250;2024-01-06T10:18:41;48523.31;;;-141.90;60.34
5298;BME280;14738;42.668;23.250;2024-01-06T10:21:08;48489.56;;;-141.90;60.09
5298;BME280;14738;42.668;23.250;2024-01-06T10:23:34;48521.34;;;-141.90;60.88
5298;BME280;14738;42.668;23.250;2024-01-06T10:26:01;48517.34;;;-141.90;61.34
5298;BME280;14738;42.668;23.250;2024-01-06T10:30:54;48481.63;;;-141.90;59.98
5298;BME280;14738;42.668;23.250;2024-01-06T10:33:21;48483.59;;;-141.90;61.44
5298;BME280;14738;42.668;23.250;2024-01-06T10:35:48;48479.63;;;-141.90;60.76
5298;BME280;14738;42.668;23.250;2024-01-06T10:38:14;48495.53;;;-141.90;59.38
5298;BME280;14738;42.668;23.250;2024-01-06T10:41:02;48509.41;;;-141.90;60.04
5298;BME280;14738;42.668;23.250;2024-01-06T10:43:35;48497.50;;;-141.90;60.96
5298;BME280;14738;42.668;23.250;2024-01-06T10:46:07;48483.59;;;-141.90;59.65
5298;BME280;14738;42.668;23.250;2024-01-06T10:48:36;48477.66;;;-141.90;59.39
5298;BME280;14738;42.668;23.250;2024-01-06T10:51:11;48499.50;;;-141.90;59.85
5298;BME280;14738;42.668;23.250;2024-01-06T10:53:36;48461.78;;;-141.90;59.81
5298;BME280;14738;42.668;23.250;2024-01-06T10:56:07;48513.38;;;-141.90;59.00
5298;BME280;14738;42.668;23.250;2024-01-06T10:58:34;48489.56;;;-141.90;60.26
5298;BME280;14738;42.668;23.250;2024-01-06T11:01:03;48499.50;;;-141.90;60.39
5298;BME280;14738;42.668;23.250;2024-01-06T11:03:29;48509.41;;;-141.90;60.03
5298;BME280;14738;42.668;23.250;2024-01-06T11:06:01;48533.25;;;-141.90;60.24
5298;BME280;14738;42.668;23.250;2024-01-06T11:08:28;48499.50;;;-141.90;60.98
5298;BME280;14738;42.668;23.250;2024-01-06T11:10:55;48517.34;;;-141.90;59.98
5298;BME280;14738;42.668;23.250;2024-01-06T11:16:43;48507.44;;;-141.90;58.43
5298;BME280;14738;42.668;23.250;2024-01-06T11:28:07;48487.56;;;-141.90;56.62
5298;BME280;14738;42.668;23.250;2024-01-06T11:30:33;48481.63;;;-141.90;46.23
5298;BME280;14738;42.668;23.250;2024-01-06T11:33:00;48509.41;;;-141.90;45.11
5298;BME280;14738;42.668;23.250;2024-01-06T11:35:27;48493.53;;;-141.90;44.79
5298;BME280;14738;42.668;23.250;2024-01-06T11:37:58;48481.63;;;-141.90;44.79
5298;BME280;14738;42.668;23.250;2024-01-06T11:40:36;48471.69;;;-141.90;44.64
5298;BME280;14738;42.668;23.250;2024-01-06T11:43:11;48481.63;;;-141.90;44.73
5298;BME280;14738;42.668;23.250;2024-01-06T11:45:40;48453.81;;;-141.90;43.77
5298;BME280;14738;42.668;23.250;2024-01-06T11:48:08;48497.50;;;-141.90;44.32
5298;BME280;14738;42.668;23.250;2024-01-06T11:50:35;48485.59;;;-141.90;43.96
5298;BME280;14738;42.668;23.250;2024-01-06T11:53:02;48497.50;;;-141.90;43.30
5298;BME280;14738;42.668;23.250;2024-01-06T11:55:27;48489.56;;;-141.90;44.17
5298;BME280;14738;42.668;23.250;2024-01-06T11:57:54;48453.81;;;-141.90;42.78
5298;BME280;14738;42.668;23.250;2024-01-06T12:00:21;48485.59;;;-141.90;42.95
5298;BME280;14738;42.668;23.250;2024-01-06T12:06:01;48501.47;;;-141.90;42.43
5298;BME280;14738;42.668;23.250;2024-01-06T12:08:29;48485.59;;;-141.90;41.99
5298;BME280;14738;42.668;23.250;2024-01-06T12:11:04;48487.56;;;-141.90;42.37
5298;BME280;14738;42.668;23.250;2024-01-06T12:13:30;48497.50;;;-141.90;42.91
5298;BME280;14738;42.668;23.250;2024-01-06T12:15:56;48471.69;;;-141.90;42.06
5298;BME280;14738;42.668;23.250;2024-01-06T12:18:22;48493.53;;;-141.90;42.51
5298;BME280;14738;42.668;23.250;2024-01-06T12:20:52;48475.66;;;-141.90;43.71
5298;BME280;14738;42.668;23.250;2024-01-06T12:23:26;48473.69;;;-141.90;43.57
5298;BME280;14738;42.668;23.250;2024-01-06T12:25:53;48477.66;;;-141.90;44.57
5298;BME280;14738;42.668;23.250;2024-01-06T12:28:27;48473.69;;;-141.90;43.47
5298;BME280;14738;42.668;23.250;2024-01-06T12:30:53;48467.72;;;-141.90;43.77
5298;BME280;14738;42.668;23.250;2024-01-06T12:33:21;48475.66;;;-141.90;43.58
5298;BME280;14738;42.668;23.250;2024-01-06T12:35:47;48485.59;;;-141.90;42.85
5298;BME280;14738;42.668;23.250;2024-01-06T12:38:15;48461.78;;;-141.90;43.38
5298;BME280;14738;42.668;23.250;2024-01-06T12:40:42;48475.66;;;-141.90;43.42
5298;BME280;14738;42.668;23.250;2024-01-06T12:43:07;48479.63;;;-141.90;43.97
5298;BME280;14738;42.668;23.250;2024-01-06T12:45:33;48491.56;;;-141.90;44.13
5298;BME280;14738;42.668;23.250;2024-01-06T12:47:59;48471.69;;;-141.90;44.14
5298;BME280;14738;42.668;23.250;2024-01-06T12:55:36;48507.44;;;-141.90;44.00
5298;BME280;14738;42.668;23.250;2024-01-06T12:58:02;48509.41;;;-141.90;43.69
5298;BME280;14738;42.668;23.250;2024-01-06T13:00:31;48489.56;;;-141.90;43.46
5298;BME280;14738;42.668;23.250;2024-01-06T13:02:59;48477.66;;;-141.90;43.06
5298;BME280;14738;42.668;23.250;2024-01-06T13:05:24;48469.72;;;-141.90;42.56
5298;BME280;14738;42.668;23.250;2024-01-06T13:07:50;48501.47;;;-141.90;42.50
5298;BME280;14738;42.668;23.250;2024-01-06T13:10:16;48473.69;;;-141.90;42.30
5298;BME280;14738;42.668;23.250;2024-01-06T13:12:41;48489.56;;;-141.90;42.16
5298;BME280;14738;42.668;23.250;2024-01-06T13:22:22;48499.50;;;-141.90;42.12
5298;BME280;14738;42.668;23.250;2024-01-06T13:24:48;48477.66;;;-141.90;41.81
5298;BME280;14738;42.668;23.250;2024-01-06T13:27:13;48491.56;;;-141.90;42.95
5298;BME280;14738;42.668;23.250;2024-01-06T13:29:39;48495.53;;;-141.90;42.91
5298;BME280;14738;42.668;23.250;2024-01-06T13:32:06;48455.81;;;-141.90;42.90
5298;BME280;14738;42.668;23.250;2024-01-06T13:34:31;48495.53;;;-141.90;43.25
5298;BME280;14738;42.668;23.250;2024-01-06T13:36:57;48473.69;;;-141.90;43.40
5298;BME280;14738;42.668;23.250;2024-01-06T13:39:23;48457.81;;;-141.90;43.70